Time;durP1;ratioP1;P1;durP2;ratioP2;P2;SDS_P1;SDS_P2;PMS_P1;PMS_P2;Temp;Humidity;BMP_temperature;BMP_pressure;BME280_temperature;BME280_humidity;BME280_pressure;Samples;Min_cycle;Max_cycle;Signal;HPM_P1;HPM_P2
2022/10/03 00:02:19;;;;;;;5.25;1.50;;;;;;;14.46;80.55;100880.31;4965024;29;20074;-62
2022/10/03 00:05:18;;;;;;;5.18;1.60;;;;;;;14.51;79.47;100873.19;4965355;29;20047;-63
2022/10/03 00:08:10;;;;;;;8.68;1.80;;;;;;;14.54;79.62;100867.03;4961229;29;20058;-63
2022/10/03 00:11:19;;;;;;;13.00;2.30;;;;;;;14.58;79.68;100869.56;4932036;29;20110;-64
2022/10/03 00:14:13;;;;;;;20.40;2.23;;;;;;;14.62;78.80;100860.69;4897927;29;20203;-63
2022/10/03 00:16:58;;;;;;;34.95;2.92;;;;;;;14.77;78.73;100877.00;4925199;29;20292;-65
2022/10/03 00:19:56;;;;;;;17.70;2.17;;;;;;;15.12;77.47;100872.66;4911222;29;20056;-63
2022/10/03 00:22:45;;;;;;;5.10;1.77;;;;;;;15.60;77.44;100866.97;4925379;29;20308;-63
2022/10/03 00:25:45;;;;;;;8.27;1.60;;;;;;;16.09;75.01;100860.34;4925315;29;20300;-64
2022/10/03 00:28:55;;;;;;;16.87;2.43;;;;;;;16.32;74.05;100868.41;4925549;29;20286;-67
2022/10/03 00:31:57;;;;;;;3.17;1.37;;;;;;;16.41;73.48;100855.88;4941853;29;20310;-63
2022/10/03 00:34:45;;;;;;;6.00;1.90;;;;;;;16.64;73.26;100861.28;4944403;29;20288;-64
2022/10/03 00:40:55;;;;;;;70.93;6.43;;;;;;;17.18;72.56;100865.69;4980817;28;20616;-66
2022/10/03 00:47:46;;;;;;;7.27;1.83;;;;;;;17.44;70.34;100819.00;4882481;29;20328;-68
2022/10/03 00:50:35;;;;;;;4.53;2.30;;;;;;;17.66;69.76;100843.72;4883478;29;20504;-63
2022/10/03 00:53:45;;;;;;;10.63;2.23;;;;;;;17.74;70.02;100827.59;4860609;29;20293;-65
2022/10/03 00:56:57;;;;;;;13.60;2.17;;;;;;;17.83;70.19;100837.00;4865765;29;20326;-63
2022/10/03 01:00:12;;;;;;;7.43;1.70;;;;;;;17.83;70.00;100826.44;4887206;29;20294;-65
2022/10/03 01:03:15;;;;;;;16.10;2.03;;;;;;;17.83;70.47;100807.94;4882376;29;20321;-64
2022/10/03 01:06:22;;;;;;;16.53;2.37;;;;;;;18.01;70.01;100815.16;4886660;29;20334;-66
2022/10/03 01:12:45;;;;;;;7.47;2.40;;;;;;;18.25;70.39;100802.75;4837557;29;21121;-63
2022/10/03 01:15:40;;;;;;;8.10;1.90;;;;;;;18.34;69.60;100793.59;4848968;29;20291;-64
2022/10/03 01:18:49;;;;;;;6.33;2.17;;;;;;;18.42;69.84;100803.84;4874248;29;20430;-62
2022/10/03 01:24:56;;;;;;;4.53;1.90;;;;;;;18.42;70.63;100783.56;4905551;29;20644;-65
2022/10/03 01:30:21;;;;;;;55.63;3.93;;;;;;;18.44;70.00;100781.69;4854010;29;20393;-65
2022/10/03 01:31:05;;;;;;;30.97;2.80;;;;;;;18.53;70.57;100770.75;4912730;29;20296;-62
2022/10/03 01:33:51;;;;;;;13.90;2.57;;;;;;;18.62;69.77;100758.06;4917354;29;20315;-64
2022/10/03 01:39:40;;;;;;;8.57;2.30;;;;;;;18.56;69.11;100742.44;4910061;29;20472;-68
2022/10/03 01:42:24;;;;;;;11.33;2.67;;;;;;;18.66;70.14;100723.44;4928591;29;20572;-63
2022/10/03 01:45:23;;;;;;;11.70;2.50;;;;;;;18.82;70.27;100715.75;4917075;29;20289;-65
2022/10/03 01:48:22;;;;;;;9.05;2.05;;;;;;;18.98;68.80;100704.50;4887040;29;20443;-67
2022/10/03 01:51:15;;;;;;;7.47;2.77;;;;;;;19.03;68.52;100707.81;4884537;29;20076;-65
2022/10/03 01:54:23;;;;;;;8.57;2.47;;;;;;;18.94;69.04;100695.81;4912713;29;20315;-65
2022/10/03 01:57:17;;;;;;;10.87;3.10;;;;;;;18.78;68.96;100653.28;4915327;29;20325;-66
2022/10/03 02:00:16;;;;;;;20.23;2.80;;;;;;;19.03;68.69;100690.13;4936322;29;20288;-65
2022/10/03 02:03:07;;;;;;;16.87;2.70;;;;;;;18.98;68.99;100685.97;4942069;29;20331;-65
2022/10/03 02:05:56;;;;;;;8.60;2.70;;;;;;;18.92;69.27;100682.66;4931014;29;20299;-65
2022/10/03 02:08:48;;;;;;;8.20;2.42;;;;;;;19.12;69.09;100662.34;4919150;28;20296;-67
2022/10/03 02:11:42;;;;;;;14.50;2.97;;;;;;;19.12;69.73;100668.53;5018051;28;20095;-65
2022/10/03 02:14:31;;;;;;;11.45;2.90;;;;;;;19.29;69.42;100680.13;5012856;28;20081;-67
2022/10/03 02:17:22;;;;;;;4.90;2.20;;;;;;;19.46;69.95;100660.78;5013501;28;20054;-66
2022/10/03 02:20:24;;;;;;;42.67;5.50;;;;;;;19.56;68.75;100662.94;5013480;28;20347;-66
2022/10/03 02:23:26;;;;;;;12.50;2.90;;;;;;;19.67;69.75;100653.59;5014882;28;20369;-64
2022/10/03 02:26:58;;;;;;;9.00;3.00;;;;;;;19.64;69.63;100651.97;4991439;28;20344;-67
2022/10/03 02:30:25;;;;;;;10.77;3.20;;;;;;;19.64;68.71;100630.75;4990234;28;20654;-65
2022/10/03 02:33:35;;;;;;;8.30;3.33;;;;;;;19.62;69.92;100630.00;4924629;29;20296;-68
2022/10/03 02:36:47;;;;;;;16.17;4.03;;;;;;;19.69;68.86;100623.47;4923697;29;20322;-66
2022/10/03 02:40:24;;;;;;;16.77;3.40;;;;;;;19.74;69.37;100618.78;4921509;29;20364;-65
2022/10/03 02:43:59;;;;;;;21.10;3.93;;;;;;;19.80;69.61;100593.78;4885134;29;21062;-66
2022/10/03 02:47:07;;;;;;;34.57;4.80;;;;;;;19.90;69.06;100607.47;4886375;29;20294;-64
2022/10/03 02:50:37;;;;;;;21.03;3.90;;;;;;;19.60;69.20;100549.69;4884389;29;20305;-66
2022/10/03 02:53:49;;;;;;;9.93;3.67;;;;;;;19.97;69.64;100587.66;4884201;29;20566;-65
2022/10/03 03:00:37;;;;;;;17.40;4.83;;;;;;;20.18;69.61;100591.84;4875860;29;20602;-65
2022/10/03 03:03:58;;;;;;;12.23;4.20;;;;;;;20.16;69.00;100575.16;4886204;29;20313;-66
2022/10/03 03:07:21;;;;;;;10.10;4.00;;;;;;;19.97;69.24;100555.84;4909079;29;20426;-65
2022/10/03 03:10:40;;;;;;;16.43;3.93;;;;;;;20.19;68.80;100582.97;4956373;28;20279;-69
2022/10/03 03:13:54;;;;;;;11.70;4.60;;;;;;;20.00;68.83;100571.59;4961492;29;20302;-64
2022/10/03 03:16:56;;;;;;;11.80;4.47;;;;;;;19.95;69.29;100568.31;4958423;28;20585;-65
2022/10/03 03:19:50;;;;;;;14.97;4.77;;;;;;;19.87;70.01;100554.56;4986706;28;20312;-67
2022/10/03 03:22:53;;;;;;;18.60;6.10;;;;;;;19.89;70.00;100552.69;4991422;28;20659;-65
2022/10/03 03:25:49;;;;;;;14.25;4.80;;;;;;;19.86;69.69;100553.69;5011703;28;20064;-65
2022/10/03 03:28:45;;;;;;;14.50;5.30;;;;;;;19.71;70.13;100544.72;4977511;28;20068;-70
2022/10/03 03:31:40;;;;;;;9.23;5.00;;;;;;;19.61;70.96;100538.13;5018868;28;20289;-69
2022/10/03 03:34:38;;;;;;;11.90;5.17;;;;;;;19.57;71.01;100531.28;5017089;28;20277;-66
2022/10/03 03:37:39;;;;;;;15.50;5.23;;;;;;;19.57;71.30;100531.28;4998618;28;20297;-67
2022/10/03 03:40:38;;;;;;;15.53;5.03;;;;;;;19.55;71.54;100522.53;5020278;28;20333;-66
2022/10/03 03:43:36;;;;;;;11.33;5.27;;;;;;;19.56;71.97;100513.66;5041255;28;20613;-66
2022/10/03 03:46:42;;;;;;;24.47;6.30;;;;;;;19.63;72.10;100519.50;5040777;28;20293;-69
2022/10/03 03:49:50;;;;;;;16.20;5.90;;;;;;;19.60;71.58;100504.63;5041549;28;20302;-69
2022/10/03 03:52:52;;;;;;;13.03;5.27;;;;;;;19.62;71.88;100502.75;5039901;28;20288;-65
2022/10/03 03:55:47;;;;;;;15.10;6.73;;;;;;;19.66;72.23;100488.41;5007441;28;20384;-67
2022/10/03 03:58:53;;;;;;;13.35;5.97;;;;;;;19.76;72.56;100484.38;5006879;28;20292;-68
2022/10/03 04:01:56;;;;;;;13.97;6.13;;;;;;;19.89;71.89;100489.03;5006321;28;20116;-65
2022/10/03 04:05:11;;;;;;;45.13;7.73;;;;;;;19.90;72.01;100485.47;5026432;28;20324;-67
2022/10/03 04:08:26;;;;;;;14.00;6.93;;;;;;;20.09;72.03;100464.97;5041370;28;20280;-66
2022/10/03 04:11:30;;;;;;;20.63;6.70;;;;;;;20.29;71.32;100450.66;5041201;28;20311;-66
2022/10/03 04:14:56;;;;;;;20.30;7.10;;;;;;;20.45;71.35;100456.00;5040727;28;20578;-68
2022/10/03 04:21:12;;;;;;;22.17;6.80;;;;;;;20.57;71.36;100450.06;5025445;28;20045;-68
2022/10/03 04:24:20;;;;;;;21.43;7.97;;;;;;;20.49;70.93;100441.63;5040723;28;20349;-68
2022/10/03 04:27:26;;;;;;;17.20;7.47;;;;;;;20.52;71.56;100452.09;5041187;28;20675;-65
2022/10/03 04:30:13;;;;;;;24.55;8.10;;;;;;;20.46;71.59;100447.09;5026140;28;20288;-69
2022/10/03 04:33:19;;;;;;;27.73;8.30;;;;;;;20.37;72.41;100443.16;5017469;28;20057;-65
2022/10/03 04:39:49;;;;;;;19.97;9.10;;;;;;;20.39;73.37;100432.44;4998404;28;20287;-68
2022/10/03 04:42:57;;;;;;;15.37;8.30;;;;;;;20.19;73.78;100439.72;5020360;28;20312;-66
2022/10/03 04:46:14;;;;;;;20.60;8.87;;;;;;;20.10;74.63;100424.28;5020316;28;20281;-66
2022/10/03 04:49:27;;;;;;;14.33;8.33;;;;;;;20.01;75.38;100417.66;5019217;28;20323;-67
2022/10/03 04:52:25;;;;;;;22.33;8.53;;;;;;;19.97;76.03;100425.88;5020733;28;20323;-67
2022/10/03 04:55:22;;;;;;;19.33;8.83;;;;;;;19.89;76.44;100420.09;5021051;28;20355;-67
2022/10/03 04:58:06;;;;;;;58.13;10.90;;;;;;;19.76;76.46;100410.13;5020490;28;20281;-66
2022/10/03 05:01:00;;;;;;;24.83;9.37;;;;;;;19.75;77.47;100424.34;5024848;28;20289;-68
2022/10/03 05:03:49;;;;;;;28.13;8.93;;;;;;;19.66;77.79;100414.16;5024460;28;20332;-68
2022/10/03 05:06:46;;;;;;;22.47;9.53;;;;;;;19.60;78.23;100410.03;5024627;28;20307;-69
2022/10/03 05:09:31;;;;;;;23.03;9.30;;;;;;;19.58;78.70;100405.75;5024251;28;20281;-66
2022/10/03 05:12:17;;;;;;;22.20;9.40;;;;;;;19.51;79.06;100393.75;5024627;28;20837;-70
2022/10/03 05:15:26;;;;;;;30.47;10.00;;;;;;;19.42;79.49;100383.63;5024948;28;20323;-66
2022/10/03 05:18:18;;;;;;;18.70;9.53;;;;;;;19.12;80.03;100363.03;5024594;28;20295;-67
2022/10/03 05:21:15;;;;;;;23.03;9.63;;;;;;;19.27;81.07;100388.78;4977383;28;20590;-68
2022/10/03 05:24:04;;;;;;;24.43;10.03;;;;;;;19.23;81.47;100384.56;5024252;28;20311;-65
2022/10/03 05:26:51;;;;;;;19.98;9.63;;;;;;;19.18;82.24;100394.53;4998474;28;20635;-66
2022/10/03 05:29:40;;;;;;;23.52;9.27;;;;;;;19.12;82.06;100398.34;5023097;28;20064;-69
2022/10/03 05:32:35;;;;;;;36.58;10.82;;;;;;;19.09;82.79;100397.63;5038796;28;20061;-67
2022/10/03 05:35:32;;;;;;;30.97;10.17;;;;;;;19.03;83.17;100393.50;5043614;28;20109;-67
2022/10/03 05:38:34;;;;;;;58.97;11.57;;;;;;;18.86;83.51;100374.94;5008421;28;20280;-67
2022/10/03 05:41:28;;;;;;;34.75;11.07;;;;;;;18.72;83.58;100376.44;5043301;28;20566;-67
2022/10/03 05:44:18;;;;;;;27.00;10.97;;;;;;;18.84;84.05;100393.53;5043149;28;20333;-68
2022/10/03 05:50:57;;;;;;;24.67;10.97;;;;;;;18.60;85.00;100400.84;5030800;28;20318;-66
2022/10/03 05:54:32;;;;;;;50.80;10.50;;;;;;;18.47;85.62;100405.88;4981143;28;20781;-67
2022/10/03 06:00:29;;;;;;;23.97;9.73;;;;;;;18.29;86.22;100415.50;4982142;28;20630;-66
2022/10/03 06:03:48;;;;;;;26.53;11.10;;;;;;;18.17;86.80;100418.72;4982099;28;20345;-65
2022/10/03 06:06:52;;;;;;;30.27;10.90;;;;;;;18.06;87.71;100413.03;4977662;28;20302;-67
2022/10/03 06:10:14;;;;;;;31.83;10.70;;;;;;;17.95;88.13;100424.13;4981706;28;20599;-66
2022/10/03 06:13:23;;;;;;;24.60;11.37;;;;;;;17.85;88.77;100418.38;4982156;28;20282;-65
2022/10/03 06:16:01;;;;;;;29.67;10.73;;;;;;;17.37;89.13;100337.66;4980251;28;20662;-65
2022/10/03 06:26:14;;;;;;;25.47;10.67;;;;;;;17.84;89.55;100405.22;4942629;29;20276;-64
2022/10/03 06:29:15;;;;;;;27.80;10.57;;;;;;;17.89;89.50;100397.94;4942713;29;20333;-65
2022/10/03 06:32:38;;;;;;;42.90;11.80;;;;;;;17.86;88.97;100392.78;5000731;28;20286;-64
2022/10/03 06:39:20;;;;;;;28.60;11.93;;;;;;;17.78;88.93;100411.59;4898254;29;20302;-66
2022/10/03 06:42:21;;;;;;;29.63;10.90;;;;;;;17.73;89.19;100428.59;4923650;29;20316;-65
2022/10/03 06:45:45;;;;;;;20.97;11.17;;;;;;;17.59;89.22;100427.38;4923905;29;20313;-66
2022/10/03 06:49:12;;;;;;;22.70;10.80;;;;;;;17.44;89.77;100402.47;4924571;29;20281;-65
2022/10/03 06:52:18;;;;;;;22.50;10.73;;;;;;;17.27;89.78;100375.91;4893587;29;20419;-67
2022/10/03 06:55:50;;;;;;;42.17;11.00;;;;;;;16.92;89.57;100312.25;4932403;29;20339;-67
2022/10/03 06:59:11;;;;;;;31.48;10.35;;;;;;;17.48;89.47;100411.16;4955439;29;20378;-66
2022/10/03 07:02:23;;;;;;;20.77;9.63;;;;;;;17.42;89.51;100403.47;4961801;29;20059;-68
2022/10/03 07:05:51;;;;;;;22.63;11.17;;;;;;;17.39;89.42;100404.44;4959226;29;20494;-66
2022/10/03 07:09:04;;;;;;;29.03;10.30;;;;;;;17.32;89.47;100402.13;4922602;29;21015;-66
2022/10/03 07:12:05;;;;;;;24.50;10.20;;;;;;;17.17;89.54;100383.41;4892526;29;20284;-66
2022/10/03 07:15:18;;;;;;;36.47;11.30;;;;;;;17.27;89.83;100398.84;4933222;29;20347;-67
2022/10/03 07:18:47;;;;;;;32.93;12.20;;;;;;;17.29;90.19;100397.00;4961455;29;20330;-68
2022/10/03 07:21:52;;;;;;;21.90;11.23;;;;;;;17.32;90.28;100396.84;4946898;28;20315;-67
2022/10/03 07:25:08;;;;;;;24.87;11.00;;;;;;;17.35;90.14;100396.75;4960757;29;20303;-64
2022/10/03 07:28:10;;;;;;;25.17;11.57;;;;;;;17.37;90.30;100406.31;4960210;29;21342;-65
2022/10/03 07:31:18;;;;;;;24.40;11.53;;;;;;;17.33;90.09;100398.59;4953188;29;20537;-67
2022/10/03 07:34:36;;;;;;;32.67;12.37;;;;;;;17.28;90.32;100390.84;4960991;29;20283;-66
2022/10/03 07:41:01;;;;;;;27.50;11.73;;;;;;;17.28;90.60;100384.72;4935946;29;20326;-66
2022/10/03 07:44:31;;;;;;;25.50;11.27;;;;;;;16.84;90.69;100310.88;5031280;28;20341;-65
2022/10/03 07:47:48;;;;;;;41.95;12.63;;;;;;;17.22;90.90;100373.50;4954145;29;20411;-66
2022/10/03 07:50:52;;;;;;;22.90;10.90;;;;;;;17.16;91.32;100360.53;4941009;29;20052;-65
2022/10/03 07:54:09;;;;;;;33.53;12.20;;;;;;;17.26;91.26;100379.50;4941952;29;20451;-65
2022/10/03 07:57:09;;;;;;;25.63;12.50;;;;;;;17.24;91.23;100376.06;4941531;29;20481;-64
2022/10/03 08:00:32;;;;;;;26.50;11.97;;;;;;;17.24;91.08;100378.69;4937133;29;20292;-66
2022/10/03 08:07:14;;;;;;;26.43;12.40;;;;;;;17.21;91.48;100349.78;4941307;29;20288;-66
2022/10/03 08:10:46;;;;;;;29.88;12.50;;;;;;;17.25;91.37;100346.94;4928864;29;20998;-66
2022/10/03 08:13:49;;;;;;;28.43;12.57;;;;;;;17.27;91.44;100336.31;4880444;29;20066;-64
2022/10/03 08:16:53;;;;;;;25.37;12.27;;;;;;;17.35;91.16;100343.94;4940368;29;20287;-65
2022/10/03 08:19:38;;;;;;;;;;;;;;;17.37;91.12;100347.34;4852294;29;20350;-66
2022/10/03 08:22:37;;;;;;;31.27;13.03;;;;;;;17.38;90.94;100349.06;4869581;29;19920;-66
2022/10/03 08:28:51;;;;;;;26.67;11.53;;;;;;;17.37;90.59;100331.47;4956155;29;20381;-65
2022/10/03 08:32:04;;;;;;;32.13;12.90;;;;;;;17.37;90.80;100334.13;4924523;29;20321;-64
2022/10/03 08:35:15;;;;;;;24.03;13.37;;;;;;;17.35;90.63;100322.78;4942983;29;20311;-64
2022/10/03 08:38:30;;;;;;;25.30;13.13;;;;;;;17.35;90.54;100325.44;4960139;29;20652;-64
2022/10/03 08:41:38;;;;;;;38.40;14.23;;;;;;;17.35;90.41;100338.66;4960638;29;20504;-65
2022/10/03 08:44:56;;;;;;;34.27;15.77;;;;;;;17.32;90.38;100346.69;4960722;29;20631;-65
2022/10/03 08:48:00;;;;;;;45.50;14.37;;;;;;;17.20;90.37;100346.28;4960643;29;20276;-65
2022/10/03 08:51:28;;;;;;;35.00;14.00;;;;;;;17.11;90.81;100344.03;4910185;29;20388;-65
2022/10/03 08:54:35;;;;;;;33.53;13.70;;;;;;;17.03;91.03;100335.59;4912430;29;20068;-64
2022/10/03 08:57:30;;;;;;;34.27;14.27;;;;;;;16.90;91.61;100337.00;4943245;29;20368;-64
2022/10/03 09:00:22;;;;;;;29.03;12.47;;;;;;;16.94;91.47;100343.88;4960403;28;21082;-65
2022/10/03 09:03:40;;;;;;;29.33;14.67;;;;;;;16.93;91.98;100347.44;4914391;29;20457;-65
2022/10/03 09:06:59;;;;;;;32.30;13.53;;;;;;;16.90;91.99;100347.56;4940888;29;20974;-64
2022/10/03 09:10:22;;;;;;;28.43;13.60;;;;;;;16.87;92.15;100337.13;4957567;29;20347;-65
2022/10/03 09:13:20;;;;;;;27.97;13.50;;;;;;;16.81;92.49;100333.81;4944062;29;20291;-65
2022/10/03 09:20:25;;;;;;;35.70;14.70;;;;;;;16.74;92.35;100349.94;4921740;29;20416;-65
2022/10/03 09:23:38;;;;;;;28.97;14.20;;;;;;;16.66;92.21;100352.88;4920466;29;20378;-66
2022/10/03 09:26:58;;;;;;;52.15;15.07;;;;;;;16.58;92.52;100352.34;4921308;29;20312;-65
2022/10/03 09:30:09;;;;;;;34.13;13.63;;;;;;;16.50;92.85;100338.56;4957151;29;20065;-65
2022/10/03 09:33:19;;;;;;;38.80;14.90;;;;;;;16.51;93.16;100345.59;4948510;29;20283;-65
2022/10/03 09:36:10;;;;;;;52.13;25.33;;;;;;;16.44;93.73;100344.97;4950727;29;20747;-67
2022/10/03 09:39:17;;;;;;;42.13;19.10;;;;;;;16.45;94.31;100345.81;4947883;29;20319;-66
2022/10/03 09:42:27;;;;;;;33.53;15.60;;;;;;;16.41;94.90;100338.97;4949555;29;20871;-65
2022/10/03 09:45:51;;;;;;;31.45;15.27;;;;;;;16.33;95.30;100326.94;4949458;29;20552;-65
2022/10/03 09:49:20;;;;;;;36.43;15.90;;;;;;;16.37;95.52;100328.53;4953977;29;20055;-66
2022/10/03 09:52:45;;;;;;;38.73;15.50;;;;;;;16.34;95.75;100312.81;4952618;28;20291;-66
2022/10/03 09:56:03;;;;;;;32.53;15.40;;;;;;;16.33;96.18;100300.56;4900870;29;20349;-67
2022/10/03 09:59:30;;;;;;;37.83;15.70;;;;;;;16.31;96.36;100286.56;5012309;28;20293;-66
2022/10/03 10:02:51;;;;;;;35.20;15.03;;;;;;;16.37;96.68;100285.47;5012049;28;20341;-66
2022/10/03 10:06:04;;;;;;;34.33;15.90;;;;;;;16.42;96.69;100287.91;4980591;28;20380;-67
2022/10/03 10:09:13;;;;;;;28.70;14.57;;;;;;;16.39;96.88;100281.00;4960437;28;20285;-66
2022/10/03 10:12:39;;;;;;;38.38;15.23;;;;;;;16.41;96.64;100270.41;5009799;28;20293;-65
2022/10/03 10:16:10;;;;;;;30.07;15.07;;;;;;;16.41;96.94;100265.13;4935089;29;20062;-67
2022/10/03 10:22:45;;;;;;;35.93;16.70;;;;;;;16.46;96.57;100263.16;4907037;29;20302;-67
2022/10/03 10:26:44;;;;;;;37.95;17.65;;;;;;;16.41;96.60;100249.28;4933404;29;20307;-66
2022/10/03 10:49:03;;;;;;;36.70;16.83;;;;;;;16.23;96.50;100230.66;5113238;27;20350;-81
2022/10/03 10:52:15;;;;;;;34.00;15.60;;;;;;;16.04;96.60;100211.22;5146392;27;20293;-81
2022/10/03 10:55:29;;;;;;;31.57;15.73;;;;;;;15.69;96.23;100150.19;5042440;28;20069;-85
2022/10/03 11:02:24;;;;;;;29.93;15.50;;;;;;;15.99;96.27;100195.59;5041144;28;20343;-82
2022/10/03 11:05:41;;;;;;;36.13;15.70;;;;;;;15.14;96.48;100078.63;5047354;28;20375;-82
2022/10/03 11:09:04;;;;;;;33.00;16.23;;;;;;;15.28;97.04;100081.59;5039584;28;20323;-84
2022/10/03 11:12:28;;;;;;;28.53;15.73;;;;;;;15.25;97.43;100097.47;5046924;28;20300;-81
2022/10/03 11:19:36;;;;;;;41.90;19.47;;;;;;;15.62;97.38;100122.38;5012902;28;20304;-83
2022/10/03 11:22:48;;;;;;;44.80;24.27;;;;;;;15.94;97.43;100182.59;5034779;28;20327;-83
2022/10/03 11:25:57;;;;;;;47.92;26.70;;;;;;;15.75;97.43;100150.00;5042680;28;20050;-79
2022/10/03 11:29:19;;;;;;;48.43;19.67;;;;;;;15.62;97.76;100132.91;5037906;28;20072;-83
2022/10/03 11:32:21;;;;;;;32.43;18.17;;;;;;;15.27;97.75;100106.19;5084728;28;20283;-83
2022/10/03 11:35:48;;;;;;;35.93;16.03;;;;;;;15.81;97.89;100186.63;5082066;28;20290;-84
2022/10/03 11:38:49;;;;;;;33.47;16.47;;;;;;;15.45;97.80;100137.09;5055453;28;20307;-82
2022/10/03 11:41:48;;;;;;;33.10;15.50;;;;;;;15.72;97.91;100160.66;5054792;28;20346;-82
2022/10/03 11:44:31;;;;;;;39.55;16.75;;;;;;;15.69;98.22;100172.16;5055115;28;20112;-83
2022/10/03 12:16:58;;;;;;;;;;;;;;;;;;;;;
2022/10/03 13:46:23;;;;;;;26.63;12.80;;;;;;;16.22;97.36;99981.13;4812407;29;20385;-88
2022/10/03 13:49:14;;;;;;;22.27;12.93;;;;;;;15.79;97.55;99909.22;4821210;29;20292;-90
2022/10/03 13:52:14;;;;;;;26.07;12.33;;;;;;;15.56;97.54;99865.41;4821302;29;20296;-88
2022/10/03 13:55:25;;;;;;;26.57;13.57;;;;;;;16.18;97.65;99961.09;4819737;29;20288;-88
2022/10/03 14:09:39;;;;;;;21.80;12.53;;;;;;;15.79;97.96;99853.91;4756577;30;20292;-88
2022/10/03 14:12:42;;;;;;;;;;;;;;;;;;;;;
2022/10/03 14:15:34;;;;;;;23.13;12.10;;;;;;;16.09;98.22;99879.81;4849046;29;20287;-88
2022/10/03 14:19:03;;;;;;;29.67;12.10;;;;;;;15.30;98.22;99742.78;4895692;29;20321;-88
2022/10/03 14:30:25;;;;;;;26.27;12.67;;;;;;;16.22;97.68;99833.50;5031300;27;3266141;-64
2022/10/03 14:33:19;;;;;;;23.23;13.05;;;;;;;16.10;97.73;99807.69;5076840;28;20048;-64
2022/10/03 14:36:12;;;;;;;21.43;12.60;;;;;;;16.27;97.68;99810.41;5086894;28;20098;-63
2022/10/03 14:39:06;;;;;;;23.65;12.65;;;;;;;16.30;97.50;99809.41;5088172;28;20294;-65
2022/10/03 14:42:10;;;;;;;24.23;12.20;;;;;;;16.32;97.32;99808.41;5087469;28;20057;-63
2022/10/03 14:45:00;;;;;;;24.87;12.70;;;;;;;16.24;97.21;99786.84;5088594;28;20275;-64
2022/10/03 14:47:52;;;;;;;23.50;12.37;;;;;;;16.29;97.47;99792.75;5088773;28;20282;-65
2022/10/03 14:57:22;;;;;;;26.87;13.53;;;;;;;15.79;97.28;99700.25;5047185;28;20291;-86
2022/10/03 14:59:57;;;;;;;25.07;12.43;;;;;;;15.72;97.52;99691.78;5044868;28;20335;-87
2022/10/03 15:02:32;;;;;;;27.17;13.57;;;;;;;16.18;97.68;99763.41;5039372;28;20297;-85
2022/10/03 15:05:15;;;;;;;23.73;13.03;;;;;;;15.95;97.60;99709.16;5039873;28;20379;-87
2022/10/03 15:07:48;;;;;;;26.27;13.87;;;;;;;15.70;97.61;99675.19;5038838;28;20285;-86
2022/10/03 15:10:25;;;;;;;25.97;13.73;;;;;;;15.91;97.79;99723.41;5040229;28;20301;-87
2022/10/03 15:13:10;;;;;;;33.17;14.50;;;;;;;15.64;97.75;99699.16;5038059;28;20328;-86
2022/10/03 15:16:04;;;;;;;21.33;12.90;;;;;;;15.60;97.79;99692.31;5047600;28;20303;-85
2022/10/03 15:18:39;;;;;;;22.27;13.37;;;;;;;15.48;98.24;99689.34;5038900;28;20061;-86
2022/10/03 15:21:16;;;;;;;27.97;13.83;;;;;;;15.30;98.37;99653.31;5039214;28;20308;-85
2022/10/03 15:23:58;;;;;;;24.40;13.53;;;;;;;15.81;98.73;99735.31;5038968;28;20307;-86
2022/10/03 15:26:39;;;;;;;26.83;14.33;;;;;;;15.79;98.98;99719.56;5039314;28;20485;-87
2022/10/03 15:29:19;;;;;;;23.33;12.83;;;;;;;15.76;99.24;99714.44;5049005;28;20307;-87
2022/10/03 15:31:50;;;;;;;;;;;;;;;15.74;99.32;99700.47;5040645;28;20331;-85
2022/10/03 15:34:32;;;;;;;28.87;13.17;;;;;;;15.03;99.27;99572.09;5056768;28;19939;-84
2022/10/03 15:37:28;;;;;;;25.47;13.50;;;;;;;15.70;99.58;99693.63;5039195;28;20557;-87
2022/10/03 15:40:40;;;;;;;31.50;14.10;;;;;;;15.64;99.43;99667.56;5039560;28;20288;-86
2022/10/03 15:44:02;;;;;;;23.17;13.53;;;;;;;15.12;99.44;99591.00;5054011;28;20513;-86
2022/10/03 15:46:51;;;;;;;27.93;13.33;;;;;;;15.33;99.38;99624.22;5059244;28;20291;-87
2022/10/03 15:50:27;;;;;;;27.10;14.20;;;;;;;14.89;99.36;99563.97;5059181;28;20315;-89
2022/10/03 15:53:34;;;;;;;25.73;13.17;;;;;;;15.51;99.47;99668.13;4983540;28;20449;-87
2022/10/03 15:56:30;;;;;;;28.03;14.70;;;;;;;15.19;99.40;99602.94;4995188;28;20286;-87
2022/10/03 15:59:10;;;;;;;23.30;13.60;;;;;;;15.41;99.23;99639.66;4998408;28;20324;-86
2022/10/03 16:01:45;;;;;;;23.87;12.30;;;;;;;15.59;99.25;99653.75;4997215;28;20507;-86
2022/10/03 16:04:24;;;;;;;27.47;13.83;;;;;;;15.09;98.40;99586.72;4987907;28;20317;-86
2022/10/03 16:07:03;;;;;;;23.30;13.10;;;;;;;15.68;97.79;99663.88;4984667;28;20290;-86
2022/10/03 16:09:49;;;;;;;22.27;11.67;;;;;;;15.32;96.75;99606.72;4984337;28;20349;-86
2022/10/03 16:12:52;;;;;;;20.10;12.40;;;;;;;15.70;95.88;99651.50;4984295;28;20298;-86
2022/10/03 16:15:36;;;;;;;28.33;13.43;;;;;;;15.03;95.66;99539.66;4992968;28;20349;-87
2022/10/03 16:18:17;;;;;;;22.17;12.83;;;;;;;15.47;95.24;99624.41;5045161;28;20536;-85
2022/10/03 16:20:57;;;;;;;25.20;12.63;;;;;;;14.91;95.00;99541.06;5044779;28;20300;-86
2022/10/03 16:23:36;;;;;;;25.33;12.77;;;;;;;15.17;95.46;99579.31;5044541;28;20346;-86
2022/10/03 16:26:16;;;;;;;27.20;13.97;;;;;;;15.14;96.07;99590.00;5044543;28;20350;-86
2022/10/03 16:28:59;;;;;;;27.33;14.60;;;;;;;15.31;96.57;99649.75;5044273;28;20342;-85
2022/10/03 16:31:38;;;;;;;29.87;13.30;;;;;;;14.85;97.11;99549.22;5044584;28;20284;-86
2022/10/03 16:34:19;;;;;;;26.10;13.27;;;;;;;15.20;97.59;99610.78;5044226;28;20375;-85
2022/10/03 16:36:58;;;;;;;22.40;13.10;;;;;;;15.05;97.89;99596.56;5044333;28;20307;-84
2022/10/03 16:39:38;;;;;;;;;;;;;;;15.16;97.71;99608.38;5044473;28;20342;-84
2022/10/03 16:42:20;;;;;;;21.77;12.50;;;;;;;14.83;97.92;99548.47;5043979;28;19917;-85
2022/10/03 16:44:55;;;;;;;24.70;12.63;;;;;;;14.69;97.90;99506.16;5044054;28;20620;-85
2022/10/03 16:47:37;;;;;;;26.20;12.67;;;;;;;14.49;97.74;99462.34;5043951;28;20341;-85
2022/10/03 16:50:26;;;;;;;26.17;13.37;;;;;;;14.84;97.98;99521.22;5043467;28;20288;-85
2022/10/03 16:53:11;;;;;;;29.27;12.68;;;;;;;15.09;98.00;99556.00;5043412;28;20315;-84
2022/10/03 16:55:49;;;;;;;24.93;13.23;;;;;;;15.15;98.22;99560.16;5043158;28;20041;-84
2022/10/03 16:58:27;;;;;;;22.90;13.23;;;;;;;14.92;98.26;99521.72;5043070;28;20292;-84
2022/10/03 17:01:02;;;;;;;29.63;13.20;;;;;;;14.51;98.63;99448.19;5043033;28;20292;-83
2022/10/03 17:04:01;;;;;;;26.07;13.43;;;;;;;14.95;98.76;99537.38;5042894;28;20515;-84
2022/10/03 17:06:36;;;;;;;27.67;14.45;;;;;;;14.46;99.03;99444.91;5043045;28;20322;-83
2022/10/03 17:09:22;;;;;;;27.30;13.87;;;;;;;14.41;99.45;99431.97;5043028;28;20065;-84
2022/10/03 17:11:56;;;;;;;22.63;13.60;;;;;;;14.88;99.83;99499.97;5042227;28;20312;-83
2022/10/03 17:15:10;;;;;;;20.70;12.87;;;;;;;14.60;100.00;99446.94;5032294;28;20308;-83
2022/10/03 17:17:53;;;;;;;26.73;13.87;;;;;;;14.81;100.00;99467.00;4962441;28;20302;-84
2022/10/03 17:20:40;;;;;;;19.70;12.97;;;;;;;14.95;100.00;99484.78;4962534;28;20298;-83
2022/10/03 17:23:21;;;;;;;25.20;13.73;;;;;;;14.96;100.00;99480.38;4962446;28;20523;-84
2022/10/03 17:26:01;;;;;;;31.23;14.63;;;;;;;14.65;100.00;99427.41;4962207;28;20291;-84
2022/10/03 17:28:46;;;;;;;30.83;14.50;;;;;;;14.79;100.00;99441.69;4962511;28;20314;-84
2022/10/03 17:31:39;;;;;;;26.07;14.53;;;;;;;14.39;100.00;99359.38;4962385;28;20299;-83
2022/10/03 17:34:16;;;;;;;30.07;14.47;;;;;;;14.30;100.00;99362.44;4962074;28;20369;-84
2022/10/03 17:37:15;;;;;;;27.77;14.40;;;;;;;14.69;100.00;99419.38;4962026;28;20339;-84
2022/10/03 17:39:57;;;;;;;28.13;14.40;;;;;;;14.14;100.00;99334.25;4962258;28;20325;-83
2022/10/03 17:42:44;;;;;;;28.40;13.50;;;;;;;14.57;100.00;99378.72;4964444;28;20349;-83
2022/10/03 17:45:32;;;;;;;33.00;14.63;;;;;;;14.52;100.00;99381.53;4973355;28;20333;-85